Time;durP1;ratioP1;P1;durP2;ratioP2;P2;SDS_P1;SDS_P2;PMS_P1;PMS_P2;Temp;Humidity;BMP_temperature;BMP_pressure;BME280_temperature;BME280_humidity;BME280_pressure;Samples;Min_cycle;Max_cycle;Signal;HPM_P1;HPM_P2
2022/05/08 00:00:17;;;;;;;13.30;11.90;;;;;21.00;101393.00;;;;2077378;28;20685;-47
2022/05/08 00:01:17;;;;;;;13.73;11.83;;;;;21.00;101389.00;;;;2078791;28;20857;-46
2022/05/08 00:02:17;;;;;;;13.27;11.97;;;;;21.00;101376.00;;;;2078754;28;20232;-46
2022/05/08 00:03:18;;;;;;;13.60;12.20;;;;;21.00;101382.00;;;;2077038;28;20252;-46
2022/05/08 00:04:18;;;;;;;13.53;12.13;;;;;21.00;101388.00;;;;2070419;28;20214;-47
2022/05/08 00:05:18;;;;;;;12.20;10.77;;;;;21.00;101392.00;;;;2069308;28;20316;-49
2022/05/08 00:06:19;;;;;;;13.90;11.53;;;;;21.00;101389.00;;;;2069550;28;20226;-46
2022/05/08 00:07:20;;;;;;;12.37;11.07;;;;;21.00;101392.00;;;;2069620;28;20232;-48
2022/05/08 00:08:20;;;;;;;12.20;10.90;;;;;21.00;101391.00;;;;2069684;28;20261;-47
2022/05/08 00:09:20;;;;;;;12.23;10.70;;;;;21.00;101391.00;;;;2069681;28;20537;-48
2022/05/08 00:10:21;;;;;;;11.70;10.50;;;;;21.00;101395.00;;;;2069397;28;20245;-47
2022/05/08 00:11:21;;;;;;;12.20;10.90;;;;;21.00;101393.00;;;;2069812;28;20299;-47
2022/05/08 00:12:21;;;;;;;11.73;10.53;;;;;21.00;101393.00;;;;2069694;28;20222;-47
2022/05/08 00:13:22;;;;;;;13.60;10.73;;;;;21.00;101388.00;;;;2069853;28;20213;-46
2022/05/08 00:14:22;;;;;;;10.73;9.63;;;;;21.00;101393.00;;;;2069955;28;20305;-48
2022/05/08 00:15:23;;;;;;;11.67;10.53;;;;;21.00;101388.00;;;;2069621;28;20221;-49
2022/05/08 00:16:23;;;;;;;11.03;9.93;;;;;21.00;101390.00;;;;2069897;28;20268;-47
2022/05/08 00:17:23;;;;;;;11.03;8.87;;;;;21.00;101388.00;;;;2071894;28;20217;-47
2022/05/08 00:18:24;;;;;;;11.33;10.23;;;;;21.00;101391.00;;;;2077828;28;20245;-47
2022/05/08 00:19:24;;;;;;;10.50;9.50;;;;;21.00;101380.00;;;;2077821;28;20209;-47
2022/05/08 00:20:24;;;;;;;11.83;10.50;;;;;21.00;101385.00;;;;2077015;28;20211;-46
2022/05/08 00:21:25;;;;;;;12.67;9.60;;;;;21.00;101390.00;;;;2077717;28;20244;-48
2022/05/08 00:22:25;;;;;;;10.60;9.50;;;;;21.00;101382.00;;;;2077921;28;20263;-48
2022/05/08 00:23:25;;;;;;;10.40;9.40;;;;;21.00;101389.00;;;;2077534;28;20682;-48
2022/05/08 00:24:26;;;;;;;9.83;8.83;;;;;21.00;101386.00;;;;2077484;28;20713;-47
2022/05/08 00:25:27;;;;;;;10.13;8.50;;;;;21.00;101391.00;;;;2076838;28;20458;-47
2022/05/08 00:26:28;;;;;;;9.77;8.77;;;;;21.00;101384.00;;;;2077605;28;20748;-47
2022/05/08 00:27:28;;;;;;;8.87;8.07;;;;;21.00;101384.00;;;;2072743;28;20218;-47
2022/05/08 00:28:28;;;;;;;11.00;9.13;;;;;21.00;101382.00;;;;2068976;28;20592;-47
2022/05/08 00:29:29;;;;;;;8.70;7.90;;;;;21.00;101383.00;;;;2069354;28;20210;-48
2022/05/08 00:30:29;;;;;;;10.23;8.57;;;;;21.00;101383.00;;;;2069800;28;20221;-47
2022/05/08 00:31:29;;;;;;;10.30;8.13;;;;;21.00;101381.00;;;;2069426;28;20316;-47
2022/05/08 00:32:30;;;;;;;11.40;8.23;;;;;21.00;101382.00;;;;2069497;28;20222;-47
2022/05/08 00:33:31;;;;;;;10.37;8.50;;;;;21.00;101390.00;;;;2069243;28;20217;-47
2022/05/08 00:34:32;;;;;;;9.18;7.75;;;;;21.00;101389.00;;;;2069689;28;20698;-47
2022/05/08 00:35:32;;;;;;;10.00;8.67;;;;;20.70;101380.00;;;;2069013;28;20253;-47
2022/05/08 00:36:32;;;;;;;9.00;7.97;;;;;21.00;101391.00;;;;2074264;28;20213;-47
2022/05/08 00:37:33;;;;;;;9.67;7.73;;;;;21.00;101388.00;;;;2077915;28;20209;-47
2022/05/08 00:38:33;;;;;;;8.13;7.33;;;;;21.00;101386.00;;;;2077827;28;20229;-48
2022/05/08 00:39:33;;;;;;;9.00;7.87;;;;;21.00;101380.00;;;;2077739;28;20202;-47
2022/05/08 00:40:35;;;;;;;8.80;7.20;;;;;21.00;101376.00;;;;2069829;28;20218;-48
2022/05/08 00:41:35;;;;;;;9.00;7.70;;;;;21.00;101382.00;;;;2068636;28;20271;-47
2022/05/08 00:42:36;;;;;;;8.00;7.20;;;;;21.00;101379.00;;;;2068826;28;20643;-48
2022/05/08 00:43:38;;;;;;;8.30;7.50;;;;;21.00;101383.00;;;;2070209;28;20206;-48
2022/05/08 00:44:38;;;;;;;7.68;6.78;;;;;21.00;101382.00;;;;2079211;28;20682;-48
2022/05/08 00:45:39;;;;;;;9.10;7.43;;;;;21.00;101384.00;;;;2078394;28;20229;-47
2022/05/08 00:46:40;;;;;;;7.30;6.60;;;;;21.00;101385.00;;;;2079776;28;20260;-47
2022/05/08 00:47:40;;;;;;;7.72;6.90;;;;;21.00;101379.00;;;;2079052;28;20260;-48
2022/05/08 00:48:41;;;;;;;7.90;7.10;;;;;21.00;101380.00;;;;2079501;28;20284;-48
2022/05/08 00:49:41;;;;;;;7.27;6.57;;;;;21.00;101382.00;;;;2070699;28;20222;-47
2022/05/08 00:50:42;;;;;;;7.47;6.67;;;;;21.00;101375.00;;;;2068013;28;20218;-47
2022/05/08 00:51:47;;;;;;;7.43;6.33;;;;;21.00;101379.00;;;;2070555;28;20221;-46
2022/05/08 00:52:47;;;;;;;8.55;6.28;;;;;21.00;101379.00;;;;2076105;28;20758;-47
2022/05/08 00:53:50;;;;;;;6.47;5.77;;;;;21.00;101388.00;;;;2080297;28;20226;-47
2022/05/08 00:54:51;;;;;;;6.30;5.50;;;;;21.00;101387.00;;;;2079812;28;20686;-49
2022/05/08 00:55:51;;;;;;;6.97;6.20;;;;;21.00;101386.00;;;;2079444;28;20217;-47
2022/05/08 00:56:53;;;;;;;7.37;6.03;;;;;21.00;101369.00;;;;2071135;28;20352;-48
2022/05/08 00:57:53;;;;;;;7.28;6.25;;;;;21.00;101387.00;;;;2071341;28;20216;-48
2022/05/08 00:58:54;;;;;;;7.87;6.40;;;;;21.00;101383.00;;;;2079405;28;20205;-47
2022/05/08 00:59:54;;;;;;;6.10;5.53;;;;;21.00;101391.00;;;;2080248;28;20241;-46
2022/05/08 01:00:55;;;;;;;6.30;5.30;;;;;21.00;101398.00;;;;2079442;28;20213;-48
2022/05/08 01:01:55;;;;;;;6.57;5.97;;;;;21.00;101380.00;;;;2079444;28;20209;-48
2022/05/08 01:02:57;;;;;;;7.03;6.13;;;;;21.00;101386.00;;;;2079892;28;20263;-47
2022/05/08 01:03:57;;;;;;;8.02;5.40;;;;;21.00;101391.00;;;;2079991;28;20213;-48
2022/05/08 01:04:57;;;;;;;6.10;5.50;;;;;21.00;101387.00;;;;2080009;28;20233;-47
2022/05/08 01:05:58;;;;;;;6.57;5.97;;;;;21.00;101396.00;;;;2079127;28;20275;-47
2022/05/08 01:06:58;;;;;;;8.53;6.00;;;;;21.00;101393.00;;;;2071086;28;20218;-47
2022/05/08 01:07:59;;;;;;;6.67;5.60;;;;;21.00;101396.00;;;;2071033;28;20213;-47
2022/05/08 01:08:59;;;;;;;6.50;5.60;;;;;21.00;101388.00;;;;2079926;28;20213;-46
2022/05/08 01:09:59;;;;;;;7.23;6.37;;;;;21.00;101392.00;;;;2080027;28;20202;-48
2022/05/08 01:11:04;;;;;;;7.60;6.33;;;;;21.00;101385.00;;;;2080017;28;20217;-47
2022/05/08 01:12:05;;;;;;;6.03;5.43;;;;;21.00;101384.00;;;;2079852;28;20213;-46
2022/05/08 01:13:05;;;;;;;6.20;5.70;;;;;21.00;101385.00;;;;2078829;28;20209;-47
2022/05/08 01:14:05;;;;;;;5.40;4.90;;;;;21.00;101387.00;;;;2079913;28;20213;-48
2022/05/08 01:15:14;;;;;;;6.00;5.50;;;;;21.00;101390.00;;;;2079651;28;20214;-47
2022/05/08 01:16:18;;;;;;;8.38;5.32;;;;;21.00;101384.00;;;;2078327;28;20221;-47
2022/05/08 01:17:19;;;;;;;6.75;5.30;;;;;21.00;101390.00;;;;2070318;28;20252;-47
2022/05/08 01:18:19;;;;;;;6.10;5.50;;;;;21.00;101393.00;;;;2079761;28;20217;-48
2022/05/08 01:19:19;;;;;;;8.23;5.40;;;;;21.00;101397.00;;;;2080035;28;20224;-48
2022/05/08 01:20:20;;;;;;;6.00;5.40;;;;;21.00;101389.00;;;;2079018;28;20237;-47
2022/05/08 01:21:32;;;;;;;5.90;5.30;;;;;21.00;101392.00;;;;2079321;28;20209;-48
2022/05/08 01:22:32;;;;;;;6.00;5.40;;;;;21.00;101384.00;;;;2078930;28;20233;-48
2022/05/08 01:23:32;;;;;;;6.00;5.17;;;;;21.00;101394.00;;;;2071125;28;20298;-47
2022/05/08 01:24:33;;;;;;;5.27;4.77;;;;;21.00;101394.00;;;;2079285;28;20209;-47
2022/05/08 01:25:34;;;;;;;6.20;5.10;;;;;21.00;101389.00;;;;2075024;28;20299;-47
2022/05/08 01:26:34;;;;;;;6.03;5.30;;;;;21.00;101395.00;;;;2071935;28;20210;-48
2022/05/08 01:27:34;;;;;;;6.20;5.63;;;;;21.00;101400.00;;;;2071415;28;20455;-49
2022/05/08 01:28:35;;;;;;;5.40;4.87;;;;;21.00;101393.00;;;;2071428;28;20210;-47
2022/05/08 01:29:35;;;;;;;5.63;5.00;;;;;21.00;101394.00;;;;2071609;28;20217;-46
2022/05/08 01:30:35;;;;;;;6.53;5.67;;;;;20.80;101392.00;;;;2071756;28;20289;-47
2022/05/08 01:31:36;;;;;;;5.80;5.30;;;;;20.80;101392.00;;;;2070902;28;20210;-47
2022/05/08 01:32:37;;;;;;;5.73;5.23;;;;;21.00;101393.00;;;;2070541;28;20293;-48
2022/05/08 01:33:37;;;;;;;5.80;5.17;;;;;21.00;101394.00;;;;2070916;28;20226;-48
2022/05/08 01:34:38;;;;;;;5.90;5.33;;;;;21.00;101397.00;;;;2071030;28;20222;-47
2022/05/08 01:35:38;;;;;;;5.17;4.67;;;;;20.90;101403.00;;;;2069484;28;20540;-47
2022/05/08 01:36:41;;;;;;;5.70;4.97;;;;;21.00;101406.00;;;;2071325;28;20224;-48
2022/05/08 01:37:41;;;;;;;5.22;4.65;;;;;20.90;101400.00;;;;2070865;28;20218;-47
2022/05/08 01:38:42;;;;;;;5.90;5.30;;;;;21.00;101404.00;;;;2071046;28;20579;-47
2022/05/08 01:39:42;;;;;;;5.47;4.97;;;;;21.00;101400.00;;;;2071433;28;20900;-47
2022/05/08 01:40:45;;;;;;;5.60;5.10;;;;;21.00;101403.00;;;;2071493;28;20595;-46
2022/05/08 01:41:45;;;;;;;5.65;5.13;;;;;21.00;101397.00;;;;2071712;28;20214;-47
2022/05/08 01:42:46;;;;;;;5.93;4.83;;;;;21.00;101399.00;;;;2071867;28;20236;-47
2022/05/08 01:43:46;;;;;;;5.43;4.90;;;;;21.00;101404.00;;;;2071650;28;20205;-46
2022/05/08 01:44:46;;;;;;;5.10;4.70;;;;;21.00;101407.00;;;;2071435;28;20214;-46
2022/05/08 01:45:47;;;;;;;6.03;4.90;;;;;21.00;101400.00;;;;2070854;28;20213;-46
2022/05/08 01:46:48;;;;;;;5.53;4.88;;;;;21.00;101403.00;;;;2071556;28;20288;-46
2022/05/08 01:49:08;;;;;;;5.30;4.80;;;;;20.90;101408.00;;;;2079553;28;20626;-48
2022/05/08 01:50:09;;;;;;;5.70;4.43;;;;;20.90;101405.00;;;;2079779;28;20213;-48
2022/05/08 01:51:12;;;;;;;5.40;4.70;;;;;20.90;101406.00;;;;2079530;28;20214;-48
2022/05/08 01:52:13;;;;;;;6.63;5.10;;;;;20.90;101400.00;;;;2079821;28;20213;-46
2022/05/08 01:53:13;;;;;;;5.70;4.50;;;;;20.90;101407.00;;;;2079517;28;20224;-47
2022/05/08 01:54:13;;;;;;;5.60;4.60;;;;;20.90;101398.00;;;;2079403;28;20263;-47
2022/05/08 01:55:14;;;;;;;5.63;4.83;;;;;20.90;101407.00;;;;2079597;28;20217;-47
2022/05/08 01:56:14;;;;;;;5.13;4.50;;;;;21.00;101411.00;;;;2079115;28;20220;-47
2022/05/08 01:57:14;;;;;;;5.13;4.73;;;;;21.00;101401.00;;;;2079578;28;20297;-48
2022/05/08 01:58:18;;;;;;;5.97;4.23;;;;;21.00;101406.00;;;;2079471;28;20217;-48
2022/05/08 01:59:19;;;;;;;5.05;4.53;;;;;20.90;101411.00;;;;2079307;28;20217;-46
2022/05/08 02:00:20;;;;;;;4.90;4.27;;;;;20.90;101409.00;;;;2079676;28;21472;-48
2022/05/08 02:01:20;;;;;;;5.85;4.88;;;;;21.00;101409.00;;;;2079457;28;20217;-47
2022/05/08 02:02:21;;;;;;;5.00;4.57;;;;;20.90;101410.00;;;;2079568;28;20674;-47
2022/05/08 02:03:22;;;;;;;5.63;4.43;;;;;20.90;101418.00;;;;2078085;28;20213;-48
2022/05/08 02:04:23;;;;;;;5.55;4.93;;;;;20.90;101411.00;;;;2078746;28;20221;-48
2022/05/08 02:05:23;;;;;;;4.57;4.00;;;;;20.90;101417.00;;;;2060707;28;20222;-47
2022/05/08 02:06:24;;;;;;;4.23;3.83;;;;;20.90;101411.00;;;;2078544;28;20478;-47
2022/05/08 02:07:24;;;;;;;4.90;4.40;;;;;20.90;101412.00;;;;2078471;28;20221;-47
2022/05/08 02:08:24;;;;;;;5.10;4.60;;;;;20.90;101418.00;;;;2079660;28;20218;-48
2022/05/08 02:09:25;;;;;;;4.47;4.00;;;;;20.90;101422.00;;;;2078936;28;20221;-48
2022/05/08 02:10:25;;;;;;;4.83;3.93;;;;;20.90;101424.00;;;;2070725;28;20272;-47
2022/05/08 02:11:26;;;;;;;5.40;4.87;;;;;20.90;101422.00;;;;2078973;28;21024;-47
2022/05/08 02:12:26;;;;;;;5.47;4.97;;;;;20.90;101424.00;;;;2078953;28;20694;-47
2022/05/08 02:13:26;;;;;;;4.90;4.50;;;;;20.90;101426.00;;;;2079463;28;20637;-47
2022/05/08 02:14:27;;;;;;;4.67;4.23;;;;;20.90;101424.00;;;;2073348;28;20234;-48
2022/05/08 02:15:29;;;;;;;4.73;4.33;;;;;20.90;101423.00;;;;2070429;28;20222;-48
2022/05/08 02:16:29;;;;;;;4.03;3.72;;;;;20.90;101426.00;;;;2075703;28;20209;-47
2022/05/08 02:17:30;;;;;;;4.70;4.23;;;;;20.90;101432.00;;;;2079379;28;20244;-47
2022/05/08 02:18:30;;;;;;;5.80;4.27;;;;;20.90;101429.00;;;;2079514;28;20205;-48
2022/05/08 02:19:30;;;;;;;4.53;4.13;;;;;20.90;101429.00;;;;2079486;28;20217;-47
2022/05/08 02:20:31;;;;;;;5.77;5.13;;;;;20.90;101426.00;;;;2079648;28;20248;-48
2022/05/08 02:21:31;;;;;;;4.53;4.03;;;;;20.90;101427.00;;;;2079591;28;20214;-47
2022/05/08 02:22:35;;;;;;;5.40;4.23;;;;;20.90;101429.00;;;;2079624;28;20263;-47
2022/05/08 02:23:35;;;;;;;4.55;4.05;;;;;20.90;101433.00;;;;2078953;28;20304;-49
2022/05/08 02:24:35;;;;;;;4.80;4.40;;;;;20.90;101428.00;;;;2079603;28;20210;-48
2022/05/08 02:25:36;;;;;;;4.90;4.50;;;;;20.90;101425.00;;;;2078743;28;20214;-48
2022/05/08 02:26:37;;;;;;;4.70;4.30;;;;;20.90;101429.00;;;;2078786;28;20230;-46
2022/05/08 02:27:38;;;;;;;4.30;3.90;;;;;20.90;101434.00;;;;2078284;28;20533;-47
2022/05/08 02:28:39;;;;;;;5.25;4.78;;;;;20.90;101429.00;;;;2078982;28;20785;-47
2022/05/08 02:29:39;;;;;;;4.60;4.20;;;;;20.90;101427.00;;;;2078908;28;20217;-46
2022/05/08 02:30:40;;;;;;;5.30;4.37;;;;;20.90;101426.00;;;;2078163;28;21004;-48
2022/05/08 02:31:40;;;;;;;5.23;4.70;;;;;20.90;101429.00;;;;2075388;28;20221;-46
2022/05/08 02:32:40;;;;;;;5.17;4.20;;;;;20.90;101429.00;;;;2070497;28;20230;-47
2022/05/08 02:33:41;;;;;;;4.43;4.07;;;;;20.90;101427.00;;;;2069746;28;20222;-46
2022/05/08 02:34:41;;;;;;;4.53;3.97;;;;;20.90;101430.00;;;;2070389;28;20316;-46
2022/05/08 02:35:41;;;;;;;4.40;4.00;;;;;20.90;101420.00;;;;2068653;28;20249;-47
2022/05/08 02:36:42;;;;;;;6.17;4.83;;;;;20.90;101430.00;;;;2069865;28;20240;-49
2022/05/08 02:37:42;;;;;;;5.03;4.53;;;;;20.90;101428.00;;;;2070323;28;20234;-47
2022/05/08 02:38:42;;;;;;;4.73;4.17;;;;;20.90;101435.00;;;;2069633;28;20214;-48
2022/05/08 02:39:43;;;;;;;4.77;4.37;;;;;20.90;101433.00;;;;2071277;28;20218;-46
2022/05/08 02:40:43;;;;;;;6.77;4.93;;;;;20.90;101439.00;;;;2070782;28;20226;-47
2022/05/08 02:41:45;;;;;;;4.70;4.10;;;;;20.90;101432.00;;;;2075974;28;20719;-48
2022/05/08 02:42:46;;;;;;;4.50;4.10;;;;;20.90;101438.00;;;;2079502;28;20227;-47
2022/05/08 02:43:46;;;;;;;5.00;4.50;;;;;20.90;101373.00;;;;2079417;28;20210;-46
2022/05/08 02:44:46;;;;;;;6.70;4.60;;;;;20.90;101437.00;;;;2079258;28;20261;-47
2022/05/08 02:45:47;;;;;;;5.07;4.67;;;;;20.90;101429.00;;;;2078533;28;20583;-47
2022/05/08 02:46:47;;;;;;;5.03;4.60;;;;;20.90;101428.00;;;;2079361;28;20233;-47
2022/05/08 02:47:48;;;;;;;5.10;4.70;;;;;20.90;101428.00;;;;2078853;28;20323;-47
2022/05/08 02:48:48;;;;;;;4.57;4.27;;;;;20.90;101445.00;;;;2075488;28;20249;-47
2022/05/08 02:49:48;;;;;;;4.93;4.43;;;;;20.90;101446.00;;;;2071101;28;20206;-47
2022/05/08 02:50:49;;;;;;;5.47;4.97;;;;;20.90;101444.00;;;;2070980;28;20237;-48
2022/05/08 02:51:50;;;;;;;5.23;4.73;;;;;20.90;101439.00;;;;2071044;28;20829;-47
2022/05/08 02:52:50;;;;;;;5.45;4.95;;;;;20.90;101442.00;;;;2070898;28;20706;-47
2022/05/08 02:53:51;;;;;;;5.70;5.07;;;;;20.90;101449.00;;;;2070816;28;20214;-46
2022/05/08 02:54:51;;;;;;;5.10;4.70;;;;;20.90;101440.00;;;;2070351;28;20244;-48
2022/05/08 02:58:35;;;;;;;5.57;5.10;;;;;20.90;101437.00;;;;2079201;28;20534;-47
2022/05/08 02:59:35;;;;;;;6.00;5.38;;;;;20.90;101440.00;;;;2079340;28;20248;-47
2022/05/08 03:00:36;;;;;;;5.67;4.93;;;;;20.90;101437.00;;;;2079269;28;20220;-47
2022/05/08 03:01:37;;;;;;;5.37;4.87;;;;;20.90;101432.00;;;;2079017;28;20218;-48
2022/05/08 03:02:38;;;;;;;5.18;4.47;;;;;20.90;101436.00;;;;2078936;28;20218;-48
2022/05/08 03:03:38;;;;;;;5.85;5.25;;;;;20.80;101440.00;;;;2077841;28;20225;-47
2022/05/08 03:04:39;;;;;;;5.90;4.77;;;;;20.90;101432.00;;;;2079100;28;20218;-47
2022/05/08 03:05:43;;;;;;;4.77;4.37;;;;;20.90;101432.00;;;;2078447;28;20271;-47
2022/05/08 03:06:44;;;;;;;4.80;4.40;;;;;20.90;101432.00;;;;2078026;28;20820;-48
2022/05/08 03:07:44;;;;;;;5.20;4.70;;;;;20.90;101433.00;;;;2078895;28;20221;-48
2022/05/08 03:08:44;;;;;;;5.00;4.50;;;;;20.90;101437.00;;;;2079237;28;20210;-47
2022/05/08 03:09:45;;;;;;;7.07;5.67;;;;;20.80;101430.00;;;;2079369;28;20284;-47
2022/05/08 03:12:05;;;;;;;5.95;5.30;;;;;20.80;101438.00;;;;2079095;28;20217;-47
2022/05/08 03:13:06;;;;;;;5.23;4.73;;;;;20.80;101446.00;;;;2079143;28;20209;-46
2022/05/08 03:14:06;;;;;;;5.30;4.80;;;;;20.80;101440.00;;;;2078890;28;20476;-47
2022/05/08 03:15:07;;;;;;;5.60;5.10;;;;;20.90;101442.00;;;;2079126;28;20208;-47
2022/05/08 03:16:08;;;;;;;4.83;4.43;;;;;20.80;101434.00;;;;2078298;28;20210;-47
2022/05/08 03:17:08;;;;;;;5.40;4.90;;;;;20.90;101443.00;;;;2078935;28;20240;-47
2022/05/08 03:18:09;;;;;;;6.23;5.73;;;;;20.80;101444.00;;;;2079081;28;20221;-47
2022/05/08 03:19:10;;;;;;;6.17;5.67;;;;;20.90;101442.00;;;;2079088;28;20275;-47
2022/05/08 03:20:11;;;;;;;6.00;5.40;;;;;20.80;101439.00;;;;2079059;28;20213;-48
2022/05/08 03:21:12;;;;;;;6.00;5.50;;;;;20.80;101442.00;;;;2079070;28;20291;-47
2022/05/08 03:22:12;;;;;;;5.30;4.80;;;;;20.80;101439.00;;;;2072621;28;20221;-48
2022/05/08 03:23:14;;;;;;;5.40;4.90;;;;;20.80;101443.00;;;;2067251;28;20720;-46
2022/05/08 03:24:14;;;;;;;5.57;5.05;;;;;20.80;101451.00;;;;2070946;28;21448;-48
2022/05/08 03:25:15;;;;;;;5.70;5.20;;;;;20.80;101441.00;;;;2070966;28;20214;-48
2022/05/08 03:26:16;;;;;;;5.47;4.97;;;;;20.80;101441.00;;;;2069871;28;20214;-46
2022/05/08 03:27:16;;;;;;;5.70;5.15;;;;;20.80;101444.00;;;;2070748;28;20268;-46
2022/05/08 03:28:17;;;;;;;6.70;5.80;;;;;20.80;101446.00;;;;2070804;28;20589;-46
2022/05/08 03:29:17;;;;;;;7.53;6.60;;;;;20.80;101443.00;;;;2074269;28;20217;-48
2022/05/08 03:30:17;;;;;;;6.30;5.70;;;;;20.80;101440.00;;;;2078882;28;20213;-47
2022/05/08 03:31:18;;;;;;;6.33;5.73;;;;;20.80;101449.00;;;;2072748;28;20238;-47
2022/05/08 03:32:18;;;;;;;5.90;5.40;;;;;20.80;101438.00;;;;2070631;28;20206;-47
2022/05/08 03:33:19;;;;;;;6.43;5.90;;;;;20.80;101438.00;;;;2070878;28;20268;-47
2022/05/08 03:34:19;;;;;;;6.57;5.97;;;;;20.80;101436.00;;;;2070582;28;20317;-46
2022/05/08 03:35:19;;;;;;;7.13;6.43;;;;;20.80;101440.00;;;;2069767;28;20210;-47
2022/05/08 03:36:20;;;;;;;7.00;6.30;;;;;20.80;101443.00;;;;2069786;28;20210;-47
2022/05/08 03:37:20;;;;;;;7.53;6.63;;;;;20.80;101447.00;;;;2070822;28;20753;-47
2022/05/08 03:38:21;;;;;;;6.70;6.10;;;;;20.80;101439.00;;;;2070701;28;20897;-48
2022/05/08 03:39:21;;;;;;;7.07;6.37;;;;;20.80;101446.00;;;;2070831;28;20761;-49
2022/05/08 03:40:22;;;;;;;6.63;6.07;;;;;20.80;101445.00;;;;2070886;28;20449;-47
2022/05/08 03:41:22;;;;;;;6.87;6.27;;;;;20.80;101451.00;;;;2069922;28;20214;-48
2022/05/08 03:42:22;;;;;;;6.23;5.73;;;;;20.80;101450.00;;;;2070820;28;20214;-47
2022/05/08 03:43:23;;;;;;;7.50;6.90;;;;;20.80;101452.00;;;;2070851;28;20214;-48
2022/05/08 03:44:23;;;;;;;8.33;6.60;;;;;20.80;101452.00;;;;2070524;28;20237;-47
2022/05/08 03:45:24;;;;;;;6.83;6.23;;;;;20.80;101461.00;;;;2069592;28;20248;-47
2022/05/08 03:46:24;;;;;;;6.43;5.90;;;;;20.80;101453.00;;;;2069798;28;20234;-48
2022/05/08 03:47:24;;;;;;;7.07;6.27;;;;;20.80;101453.00;;;;2069773;28;20210;-47
2022/05/08 03:48:24;;;;;;;6.90;6.20;;;;;20.80;101463.00;;;;2070067;28;20215;-47
2022/05/08 03:49:25;;;;;;;6.37;5.87;;;;;20.80;101469.00;;;;2069526;28;20210;-47
2022/05/08 03:50:25;;;;;;;6.53;6.00;;;;;20.80;101454.00;;;;2069667;28;20898;-46
2022/05/08 03:51:26;;;;;;;6.53;5.90;;;;;20.80;101457.00;;;;2069696;28;20206;-47
2022/05/08 03:52:26;;;;;;;7.07;6.43;;;;;20.80;101456.00;;;;2070761;28;20202;-47
2022/05/08 03:53:26;;;;;;;6.90;6.30;;;;;20.80;101451.00;;;;2070800;28;20213;-48
2022/05/08 03:54:27;;;;;;;7.07;6.47;;;;;20.80;101454.00;;;;2070591;28;20237;-47
2022/05/08 03:55:27;;;;;;;7.30;6.60;;;;;20.80;101447.00;;;;2070055;28;20238;-47
2022/05/08 03:56:28;;;;;;;7.37;6.67;;;;;20.80;101453.00;;;;2070919;28;20221;-47
2022/05/08 03:57:29;;;;;;;7.13;6.53;;;;;20.80;101447.00;;;;2070387;28;20210;-47
2022/05/08 03:58:30;;;;;;;7.55;6.30;;;;;20.80;101452.00;;;;2070919;28;20210;-47
2022/05/08 03:59:30;;;;;;;7.47;6.77;;;;;20.80;101451.00;;;;2070571;28;20768;-47
2022/05/08 04:00:31;;;;;;;6.97;6.30;;;;;20.80;101459.00;;;;2078878;28;20213;-48
2022/05/08 04:01:31;;;;;;;7.80;6.30;;;;;20.80;101453.00;;;;2078910;28;20464;-48
2022/05/08 04:02:31;;;;;;;6.83;6.13;;;;;20.80;101453.00;;;;2078798;28;20235;-47
2022/05/08 04:03:32;;;;;;;7.20;6.60;;;;;20.80;101452.00;;;;2078660;28;20283;-48
2022/05/08 04:04:32;;;;;;;7.80;6.80;;;;;20.80;101448.00;;;;2078364;28;20463;-46
2022/05/08 04:05:33;;;;;;;6.53;5.97;;;;;20.80;101455.00;;;;2077879;28;20213;-48
2022/05/08 04:06:33;;;;;;;6.93;6.30;;;;;20.80;101452.00;;;;2078767;28;20237;-48
2022/05/08 04:07:33;;;;;;;7.47;6.50;;;;;20.80;101460.00;;;;2078303;28;20296;-47
2022/05/08 04:08:34;;;;;;;6.80;6.17;;;;;20.80;101457.00;;;;2078582;28;20213;-47
2022/05/08 04:09:34;;;;;;;7.60;6.23;;;;;20.80;101462.00;;;;2078580;28;20264;-47
2022/05/08 04:10:34;;;;;;;6.80;6.20;;;;;20.80;101456.00;;;;2076530;28;20233;-48
2022/05/08 04:11:35;;;;;;;8.03;7.20;;;;;20.80;101457.00;;;;2070771;28;20210;-46
2022/05/08 04:12:35;;;;;;;8.07;7.00;;;;;20.80;101453.00;;;;2070549;28;20206;-47
2022/05/08 04:13:36;;;;;;;7.20;6.50;;;;;20.80;101456.00;;;;2069538;28;20210;-48
2022/05/08 04:14:36;;;;;;;6.67;6.10;;;;;20.80;101452.00;;;;2069213;28;20709;-46
2022/05/08 04:16:55;;;;;;;6.90;6.30;;;;;20.80;101468.00;;;;2080001;28;20214;-46
2022/05/08 04:17:56;;;;;;;7.07;6.07;;;;;20.80;101455.00;;;;2074987;28;20946;-48
2022/05/08 04:18:56;;;;;;;6.87;6.03;;;;;20.80;101457.00;;;;2070416;28;20717;-47
2022/05/08 04:19:57;;;;;;;7.13;6.50;;;;;20.80;101457.00;;;;2070169;28;20218;-46
2022/05/08 04:20:57;;;;;;;7.43;6.23;;;;;20.80;101456.00;;;;2070057;28;20812;-46
2022/05/08 04:24:35;;;;;;;7.38;6.68;;;;;20.80;101464.00;;;;2077905;28;20213;-46
2022/05/08 04:25:36;;;;;;;7.37;6.10;;;;;20.80;101468.00;;;;2077879;28;20698;-48
2022/05/08 04:26:36;;;;;;;7.10;6.40;;;;;20.80;101470.00;;;;2068916;28;20210;-46
2022/05/08 04:27:37;;;;;;;6.60;5.97;;;;;20.80;101478.00;;;;2070066;28;20217;-48
2022/05/08 04:28:37;;;;;;;8.43;6.33;;;;;20.80;101469.00;;;;2070314;28;20614;-47
2022/05/08 04:29:37;;;;;;;7.33;6.60;;;;;20.80;101459.00;;;;2070383;28;21139;-47
2022/05/08 04:30:38;;;;;;;5.57;5.17;;;;;20.80;101470.00;;;;2070588;28;20695;-47
2022/05/08 04:31:38;;;;;;;6.60;5.90;;;;;20.80;101470.00;;;;2070579;28;20226;-47
2022/05/08 04:32:38;;;;;;;6.53;6.00;;;;;20.80;101473.00;;;;2072910;28;20245;-47
2022/05/08 04:33:39;;;;;;;7.40;6.60;;;;;20.80;101474.00;;;;2078679;28;20237;-47
2022/05/08 04:34:39;;;;;;;6.87;6.07;;;;;20.80;101469.00;;;;2078379;28;20218;-48
2022/05/08 04:35:39;;;;;;;7.93;6.77;;;;;20.80;101470.00;;;;2077486;28;20326;-49
2022/05/08 04:36:40;;;;;;;8.53;5.93;;;;;20.80;101475.00;;;;2078437;28;20774;-49
2022/05/08 04:37:40;;;;;;;6.90;6.30;;;;;20.80;101463.00;;;;2078374;28;20654;-48
2022/05/08 04:38:40;;;;;;;7.20;6.50;;;;;20.80;101472.00;;;;2078430;28;20217;-49
2022/05/08 04:39:41;;;;;;;6.53;5.93;;;;;20.80;101470.00;;;;2078355;28;20301;-48
2022/05/08 04:40:41;;;;;;;6.77;6.07;;;;;20.80;101473.00;;;;2072955;28;20214;-47
2022/05/08 04:41:42;;;;;;;8.00;6.37;;;;;20.80;101480.00;;;;2070543;28;20221;-48
2022/05/08 04:42:42;;;;;;;7.00;6.40;;;;;20.80;101480.00;;;;2069783;28;20256;-48
2022/05/08 04:43:42;;;;;;;7.20;6.50;;;;;20.80;101479.00;;;;2070520;28;20217;-46
2022/05/08 04:44:43;;;;;;;6.10;5.50;;;;;20.70;101478.00;;;;2070167;28;20238;-46
2022/05/08 04:45:43;;;;;;;6.73;6.03;;;;;20.80;101483.00;;;;2069524;28;20305;-47
2022/05/08 04:46:43;;;;;;;7.70;5.97;;;;;20.80;101489.00;;;;2070369;28;20294;-48
2022/05/08 04:47:43;;;;;;;6.70;6.00;;;;;20.80;101492.00;;;;2070316;28;20221;-47
2022/05/08 04:48:44;;;;;;;8.50;6.80;;;;;20.70;101490.00;;;;2070557;28;20276;-48
2022/05/08 04:49:44;;;;;;;7.23;6.47;;;;;20.80;101492.00;;;;2070373;28;20218;-48
2022/05/08 04:50:44;;;;;;;8.03;5.90;;;;;20.70;101491.00;;;;2070617;28;20241;-46
2022/05/08 04:51:45;;;;;;;8.10;5.57;;;;;20.80;101495.00;;;;2069890;28;20214;-46
2022/05/08 04:52:45;;;;;;;6.77;6.17;;;;;20.80;101495.00;;;;2069438;28;20214;-48
2022/05/08 04:53:46;;;;;;;11.40;6.30;;;;;20.70;101497.00;;;;2069916;28;20233;-48
2022/05/08 04:54:46;;;;;;;7.77;5.97;;;;;20.80;101497.00;;;;2069576;28;20218;-47
2022/05/08 04:55:46;;;;;;;7.77;5.80;;;;;20.70;101500.00;;;;2072988;28;20267;-47
2022/05/08 04:56:47;;;;;;;5.83;5.33;;;;;20.70;101498.00;;;;2077808;28;20221;-47
2022/05/08 04:57:47;;;;;;;6.43;5.63;;;;;20.80;101499.00;;;;2077343;28;20253;-47
2022/05/08 04:58:47;;;;;;;6.67;5.90;;;;;20.70;101495.00;;;;2077922;28;20220;-47
2022/05/08 04:59:48;;;;;;;8.73;6.03;;;;;20.80;101500.00;;;;2078142;28;20218;-47
2022/05/08 05:00:48;;;;;;;6.13;5.00;;;;;20.70;101496.00;;;;2078020;28;20225;-48
2022/05/08 05:01:49;;;;;;;6.57;5.60;;;;;20.70;101502.00;;;;2078014;28;20271;-46
2022/05/08 05:02:50;;;;;;;7.77;5.10;;;;;20.70;101501.00;;;;2077909;28;20217;-47
2022/05/08 05:03:50;;;;;;;6.90;5.10;;;;;20.70;101510.00;;;;2070842;28;20532;-47
2022/05/08 05:04:50;;;;;;;7.13;5.40;;;;;20.70;101500.00;;;;2073828;28;20209;-47
2022/05/08 05:05:51;;;;;;;6.77;5.20;;;;;20.80;101508.00;;;;2077139;28;20630;-48
2022/05/08 05:06:51;;;;;;;8.20;5.33;;;;;20.70;101516.00;;;;2077781;28;20573;-48
2022/05/08 05:07:51;;;;;;;8.20;5.00;;;;;20.80;101509.00;;;;2077348;28;20593;-47